createdAt,value
2022-09-23T00:00:45.236Z,17.39
2022-09-23T00:05:58.980Z,17.41
2022-09-23T00:11:05.867Z,17.39
2022-09-23T00:16:11.720Z,17.41
2022-09-23T00:21:15.757Z,17.39
2022-09-23T00:26:20.627Z,17.35
2022-09-23T00:31:25.857Z,17.26
2022-09-23T00:36:32.123Z,17.24
2022-09-23T00:41:36.060Z,17.22
2022-09-23T00:46:41.755Z,17.19
2022-09-23T00:51:51.417Z,17.19
2022-09-23T00:56:54.524Z,17.22
2022-09-23T01:01:58.497Z,17.14
2022-09-23T01:07:02.763Z,17.14
2022-09-23T01:12:12.492Z,17.13
2022-09-23T01:17:19.378Z,17.11
2022-09-23T01:22:28.497Z,17.11
2022-09-23T01:27:42.836Z,17.05
2022-09-23T01:32:58.773Z,17.04
2022-09-23T01:38:11.325Z,17.02
2022-09-23T01:43:17.096Z,16.99
2022-09-23T01:48:23.025Z,16.97
2022-09-23T01:53:33.063Z,16.96
2022-09-23T01:58:41.212Z,16.96
2022-09-23T02:03:50.005Z,16.92
2022-09-23T02:08:56.554Z,16.92
2022-09-23T02:14:03.138Z,16.89
2022-09-23T02:19:10.489Z,16.92
2022-09-23T02:24:15.745Z,16.89
2022-09-23T02:29:23.612Z,16.82
2022-09-23T02:34:36.264Z,16.85
2022-09-23T02:39:43.649Z,16.77
2022-09-23T02:44:46.658Z,16.82
2022-09-23T02:49:50.906Z,16.79
2022-09-23T02:54:53.734Z,16.75
2022-09-23T02:59:56.722Z,16.72
2022-09-23T03:05:06.942Z,16.74
2022-09-23T03:10:14.807Z,16.72
2022-09-23T03:15:23.894Z,16.69
2022-09-23T03:20:34.065Z,16.68
2022-09-23T03:25:38.637Z,16.66
2022-09-23T03:30:43.513Z,16.63
2022-09-23T03:36:10.935Z,16.63
2022-09-23T03:41:16.975Z,16.63
2022-09-23T03:46:19.830Z,16.57
2022-09-23T03:51:24.714Z,16.59
2022-09-23T03:56:27.849Z,16.57
2022-09-23T04:01:30.660Z,16.59
2022-09-23T04:06:34.726Z,16.57
2022-09-23T04:11:37.426Z,16.54
2022-09-23T04:16:40.268Z,16.54
2022-09-23T04:21:45.237Z,16.52
2022-09-23T04:26:51.321Z,16.48
2022-09-23T04:31:54.540Z,16.51
2022-09-23T04:36:58.629Z,16.47
2022-09-23T04:42:01.341Z,16.45
2022-09-23T04:47:04.361Z,16.45
2022-09-23T04:52:08.469Z,16.43
2022-09-23T04:57:11.244Z,16.40
2022-09-23T05:02:14.171Z,16.37
2022-09-23T05:07:19.114Z,16.35
2022-09-23T05:12:21.861Z,16.35
2022-09-23T05:17:24.533Z,16.35
2022-09-23T05:22:30.626Z,16.33
2022-09-23T05:27:33.278Z,16.32
2022-09-23T05:32:36.000Z,16.35
2022-09-23T05:37:40.341Z,16.35
2022-09-23T05:42:43.040Z,16.34
2022-09-23T05:47:45.686Z,16.39
2022-09-23T05:52:49.649Z,16.40
2022-09-23T05:57:52.318Z,16.44
2022-09-23T06:02:54.992Z,16.46
2022-09-23T06:07:59.288Z,16.49
2022-09-23T06:13:01.914Z,16.54
2022-09-23T06:18:05.414Z,16.54
2022-09-23T06:23:10.941Z,16.63
2022-09-23T06:28:14.486Z,16.81
2022-09-23T06:33:20.422Z,16.95
2022-09-23T06:38:31.165Z,17.11
2022-09-23T06:43:33.962Z,17.32
2022-09-23T06:48:36.570Z,17.51
2022-09-23T06:53:40.853Z,17.64
2022-09-23T06:58:43.563Z,17.88
2022-09-23T07:03:47.285Z,18.00
2022-09-23T07:08:53.156Z,17.98
2022-09-23T07:13:56.092Z,17.99
2022-09-23T07:18:59.048Z,18.07
2022-09-23T07:24:03.769Z,18.10
2022-09-23T07:29:06.550Z,18.17
2022-09-23T07:34:11.838Z,18.21
2022-09-23T07:39:16.070Z,18.17
2022-09-23T07:44:21.817Z,18.11
2022-09-23T07:49:24.541Z,18.01
2022-09-23T07:54:29.674Z,17.96
2022-09-23T07:59:32.291Z,17.97
2022-09-23T08:04:35.229Z,17.92
2022-09-23T08:09:41.593Z,17.91
2022-09-23T08:14:44.639Z,17.95
2022-09-23T08:19:47.240Z,17.91
2022-09-23T08:24:52.748Z,17.93
2022-09-23T08:29:57.226Z,17.96
2022-09-23T08:35:00.079Z,18.06
2022-09-23T08:40:04.624Z,18.12
2022-09-23T08:45:09.081Z,18.18
2022-09-23T08:50:14.875Z,18.15
2022-09-23T08:55:19.923Z,18.20
2022-09-23T09:00:24.608Z,18.21
2022-09-23T09:05:28.401Z,18.15
2022-09-23T09:10:36.726Z,18.13
2022-09-23T09:15:43.492Z,18.12
2022-09-23T09:20:50.291Z,18.09
2022-09-23T09:25:56.151Z,18.08
2022-09-23T09:31:02.440Z,18.08
2022-09-23T09:36:16.321Z,18.07
2022-09-23T09:41:21.456Z,18.05
2022-09-23T09:46:50.241Z,18.06
2022-09-23T09:52:12.969Z,18.08
2022-09-23T09:57:20.944Z,18.09
2022-09-23T10:02:28.349Z,18.07
2022-09-23T10:07:35.231Z,18.12
2022-09-23T10:12:47.194Z,18.13
2022-09-23T10:17:51.646Z,18.22
2022-09-23T10:22:56.630Z,18.30
2022-09-23T10:28:23.186Z,18.21
2022-09-23T10:33:27.997Z,18.20
2022-09-23T10:38:30.734Z,18.20
2022-09-23T10:43:56.803Z,18.21
2022-09-23T10:49:29.103Z,18.19
2022-09-23T10:54:37.806Z,18.22
2022-09-23T10:59:55.182Z,18.21
2022-09-23T11:05:20.830Z,18.22
2022-09-23T11:10:45.894Z,18.23
2022-09-23T11:15:57.160Z,18.24
2022-09-23T11:21:10.142Z,18.23
2022-09-23T11:26:26.857Z,18.24
2022-09-23T11:31:38.921Z,18.21
2022-09-23T11:36:45.306Z,18.26
2022-09-23T11:41:48.340Z,18.27
2022-09-23T11:46:56.881Z,18.31
2022-09-23T11:52:04.645Z,18.31
2022-09-23T11:57:11.546Z,18.28
2022-09-23T12:02:24.622Z,18.30
2022-09-23T12:07:35.743Z,18.39
2022-09-23T12:12:43.026Z,18.37
2022-09-23T12:18:04.969Z,18.35
2022-09-23T12:23:20.297Z,18.34
2022-09-23T12:28:26.146Z,18.35
2022-09-23T12:33:32.405Z,18.37
2022-09-23T12:38:36.849Z,18.37
2022-09-23T12:43:51.744Z,18.36
2022-09-23T12:49:03.622Z,18.39
2022-09-23T12:54:23.751Z,18.42
2022-09-23T12:59:28.214Z,18.41
2022-09-23T13:05:01.371Z,18.41
2022-09-23T13:10:09.409Z,18.43
2022-09-23T13:15:18.496Z,18.45
2022-09-23T13:20:38.329Z,18.44
2022-09-23T13:25:43.109Z,18.62
2022-09-23T13:30:49.575Z,18.66
2022-09-23T13:35:57.012Z,18.72
2022-09-23T13:41:02.428Z,18.75
2022-09-23T13:46:10.493Z,18.81
2022-09-23T13:51:20.502Z,18.84
2022-09-23T13:56:24.063Z,18.83
2022-09-23T14:01:32.409Z,18.82
2022-09-23T14:06:39.296Z,18.87
2022-09-23T14:11:42.175Z,18.87
2022-09-23T14:16:45.052Z,18.87
2022-09-23T14:21:51.273Z,18.88
2022-09-23T14:26:56.008Z,18.93
2022-09-23T14:32:03.146Z,18.93
2022-09-23T14:37:27.538Z,19.00
2022-09-23T14:42:31.080Z,19.18
2022-09-23T14:47:35.607Z,19.02
2022-09-23T14:52:49.787Z,18.92
2022-09-23T14:58:02.831Z,18.92
2022-09-23T15:03:14.586Z,18.91
2022-09-23T15:08:22.074Z,18.91
2022-09-23T15:13:28.495Z,18.94
2022-09-23T15:18:33.080Z,18.97
2022-09-23T15:23:45.400Z,18.98
2022-09-23T15:28:49.035Z,19.02
2022-09-23T15:33:52.073Z,19.02
2022-09-23T15:38:57.244Z,19.03
2022-09-23T15:44:04.446Z,19.04
2022-09-23T15:49:10.210Z,19.04
2022-09-23T15:54:14.666Z,19.05
2022-09-23T15:59:17.388Z,19.07
2022-09-23T16:04:20.414Z,19.06
2022-09-23T16:09:24.441Z,19.06
2022-09-23T16:14:27.074Z,19.05
2022-09-23T16:19:30.723Z,18.93
2022-09-23T16:24:34.767Z,19.00
2022-09-23T16:29:37.523Z,18.96
2022-09-23T16:34:40.212Z,18.95
2022-09-23T16:39:44.227Z,18.90
2022-09-23T16:44:47.047Z,18.88
2022-09-23T16:49:58.561Z,18.76
2022-09-23T16:55:02.605Z,18.82
2022-09-23T17:00:25.106Z,18.79
2022-09-23T17:05:27.791Z,18.75
2022-09-23T17:10:32.956Z,18.73
2022-09-23T17:15:37.069Z,18.70
2022-09-23T17:20:39.772Z,18.69
2022-09-23T17:25:48.361Z,18.66
2022-09-23T17:30:52.615Z,18.65
2022-09-23T17:35:56.655Z,18.63
2022-09-23T17:41:02.072Z,18.59
2022-09-23T17:46:06.442Z,18.56
2022-09-23T17:51:12.243Z,18.57
2022-09-23T17:56:17.707Z,18.54
2022-09-23T18:01:22.351Z,18.53
2022-09-23T18:06:26.340Z,18.49
2022-09-23T18:11:31.306Z,18.48
2022-09-23T18:16:36.645Z,18.47
2022-09-23T18:21:41.283Z,18.44
2022-09-23T18:26:45.915Z,18.44
2022-09-23T18:31:50.872Z,18.42
2022-09-23T18:36:55.963Z,18.39
2022-09-23T18:42:02.514Z,18.37
2022-09-23T18:47:05.255Z,18.36
2022-09-23T18:52:07.935Z,18.34
2022-09-23T18:57:13.143Z,18.34
2022-09-23T19:02:16.966Z,18.31
2022-09-23T19:07:19.683Z,18.31
2022-09-23T19:12:23.784Z,18.29
2022-09-23T19:17:26.514Z,18.27
2022-09-23T19:22:30.401Z,18.24
2022-09-23T19:27:35.192Z,18.25
2022-09-23T19:32:37.925Z,18.22
2022-09-23T19:37:40.607Z,18.22
2022-09-23T19:42:44.708Z,18.18
2022-09-23T19:47:47.339Z,18.18
2022-09-23T19:52:51.721Z,18.17
2022-09-23T19:57:55.697Z,18.17
2022-09-23T20:02:58.717Z,18.12
2022-09-23T20:08:01.935Z,18.13
2022-09-23T20:13:06.126Z,18.12
2022-09-23T20:18:10.089Z,18.10
2022-09-23T20:23:12.855Z,18.10
2022-09-23T20:28:17.440Z,18.07
2022-09-23T20:33:22.259Z,18.08
2022-09-23T20:38:24.932Z,18.09
2022-09-23T20:43:29.155Z,18.06
2022-09-23T20:48:32.311Z,18.03
2022-09-23T20:53:35.391Z,18.05
2022-09-23T20:58:40.186Z,18.03
2022-09-23T21:03:44.719Z,17.99
2022-09-23T21:08:47.655Z,18.00
2022-09-23T21:13:52.403Z,17.98
2022-09-23T21:18:55.075Z,17.98
2022-09-23T21:24:17.213Z,17.94
2022-09-23T21:29:22.991Z,17.97
2022-09-23T21:34:28.182Z,17.92
2022-09-23T21:39:30.884Z,17.94
2022-09-23T21:44:35.172Z,17.91
2022-09-23T21:49:37.848Z,17.91
2022-09-23T21:54:40.580Z,17.92
2022-09-23T21:59:44.554Z,17.94
2022-09-23T22:04:47.333Z,17.95
2022-09-23T22:09:50.113Z,17.94
2022-09-23T22:14:54.212Z,17.92
2022-09-23T22:19:57.183Z,17.87
2022-09-23T22:24:59.851Z,17.87
2022-09-23T22:30:21.468Z,17.84
2022-09-23T22:35:24.221Z,17.83
2022-09-23T22:40:27.003Z,17.81
2022-09-23T22:45:31.205Z,17.78
2022-09-23T22:50:33.955Z,17.80
2022-09-23T22:55:36.674Z,17.79
2022-09-23T23:00:40.729Z,17.77
2022-09-23T23:05:45.701Z,17.77
2022-09-23T23:10:48.592Z,17.74
2022-09-23T23:15:52.756Z,17.74
2022-09-23T23:20:57.232Z,17.72
2022-09-23T23:25:59.957Z,17.71
2022-09-23T23:31:05.433Z,17.71
2022-09-23T23:36:08.801Z,17.71
2022-09-23T23:41:13.009Z,17.70
2022-09-23T23:46:18.115Z,17.74
2022-09-23T23:51:21.591Z,17.68
2022-09-23T23:56:25.512Z,17.70
